Aérodrome :







RETROUVEZ-NOUS SUR...

 
LOGIN :

S'inscrire | Disclaimer

   EN    FR    IT 

 









Légende :    VFR   VFR Marginal   IFR   IFR Intensif   IFR Très Intensif
Visi : 
Plafond : 
>= 8 km
>= 3000ft
5 à 8 km
1000 à 3000 ft
1500m à 5 km
500 à 1000 ft
800 à 1500m
200 à 500 ft
< 800m
< 200 ft
Symboles :   Orages  Brouillard  Fortes neiges  Fortes précipitations  Vent > 20 kt







- Altitude de l'aérodrome : 171 ft
- Code IATA : KEF


BIKF - Keflavik International

DERNIER METAR :
  • 251330Z 11029KT 6000 -DZRA BKN012 OVC020 10/09 Q0994

METARs EXPIRÉS :
  • 251300Z 11027KT 7000 -RA SCT015 BKN022 OVC030 10/09 Q0995
  • 251230Z 11027G37KT 9999 -RA FEW015 OVC040 11/07 Q0996
  • 251200Z 11026KT 9999 -RA FEW015 OVC046 10/08 Q0997
  • 251130Z 11023KT 9999 -RA FEW015 OVC040 10/08 Q0998
  • 251101Z 12019KT 7000 -RA SCT015 BKN024 OVC045 10/08 Q0999

TAF TAF BIKF
Valide du 25 à 12h jusqu'au 26 à 12h UTC


251101Z 2512/2612 12025G40KT 9999 RA SCT015 BKN020 OVC030 TX12/2518Z TN08/2606Z
BECMG 2512/2514 BKN013 OVC025
TEMPO 2512/2517 5000 RADZ OVC010
BECMG 2518/2520 14018G28KT
TEMPO 2517/2522 3000 RADZ BR OVC005
PROB40
TEMPO 2517/2522 1000 FG VV002
BECMG 2522/2601 9999 SHRA BKN015 OVC025
BECMG 2606/2609 12010KT
BECMG 2610/2612 22015KT
Pas de NOTAMs connus pour ce terrain.



MET'MAP, la Météo Aéronautique d'un coup d'oeil ! - Copyright ORBIFLY Décembre 2007 - Disclaimer

ORBIFLY MET'MAP TEAM :

Programmation & Développement : Alexandra Zaïnal
Conception & Développement : Baudouin d'Aumeries
Co-Programmation & Développement : Marc-Olivier Méhu
Soutien technique & logistique : Manuel Goepfert

Contact : metmap@orbifly.com




SOURCES & CREDITS :

   NOAA